Time;durP1;ratioP1;P1;durP2;ratioP2;P2;SDS_P1;SDS_P2;PMS_P1;PMS_P2;Temp;Humidity;BMP_temperature;BMP_pressure;BME280_temperature;BME280_humidity;BME280_pressure;Samples;Min_cycle;Max_cycle;Signal;HPM_P1;HPM_P2
2021/09/30 00:01:00;;;;;;;12.02;10.77;;;;;;;;;;6244224;23;20011;-77
2021/09/30 00:03:26;;;;;;;12.77;11.27;;;;;;;;;;6245479;22;20004;-76
2021/09/30 00:05:52;;;;;;;12.10;10.90;;;;;;;;;;6244259;23;20451;-77
2021/09/30 00:08:20;;;;;;;11.50;10.32;;;;;;;;;;6243647;23;20444;-78
2021/09/30 00:10:59;;;;;;;12.77;11.05;;;;;;;;;;6245882;22;20054;-76
2021/09/30 00:13:38;;;;;;;12.27;10.95;;;;;;;;;;6245893;22;20004;-78
2021/09/30 00:41:06;;;;;;;11.20;9.98;;;;;;;;;;6245384;23;20015;-78
2021/09/30 00:46:10;;;;;;;9.98;8.98;;;;;;;;;;6245393;23;20074;-78
2021/09/30 02:59:55;;;;;;;9.75;8.85;;;;;;;;;;6276972;22;20069;-75
2021/09/30 03:02:22;;;;;;;9.27;8.38;;;;;;;;;;6276708;22;20079;-76
2021/09/30 03:04:49;;;;;;;8.43;7.63;;;;;;;;;;6277016;22;20003;-76
2021/09/30 03:07:17;;;;;;;10.15;9.15;;;;;;;;;;6276952;22;20004;-77
2021/09/30 03:09:45;;;;;;;8.88;8.07;;;;;;;;;;6249660;22;20065;-75
2021/09/30 03:12:30;;;;;;;8.95;8.05;;;;;;;;;;6276593;22;20004;-76
2021/09/30 03:20:47;;;;;;;9.57;8.70;;;;;;;;;;6276639;22;20339;-78
2021/09/30 03:23:13;;;;;;;9.35;8.45;;;;;;;;;;6276644;22;20031;-78
2021/09/30 03:25:41;;;;;;;10.25;9.13;;;;;;;;;;6249293;22;20008;-78
2021/09/30 03:28:08;;;;;;;9.02;8.07;;;;;;;;;;6277095;22;20004;-75
2021/09/30 03:30:34;;;;;;;9.23;8.32;;;;;;;;;;6249419;22;20011;-76
2021/09/30 03:33:02;;;;;;;9.30;8.30;;;;;;;;;;6276804;22;20007;-77
2021/09/30 03:35:29;;;;;;;9.98;8.68;;;;;;;;;;6276479;22;20421;-76
2021/09/30 03:37:55;;;;;;;10.65;8.88;;;;;;;;;;6276422;22;20069;-76
2021/09/30 03:40:21;;;;;;;8.48;7.68;;;;;;;;;;6276296;22;20074;-76
2021/09/30 03:42:47;;;;;;;9.13;8.23;;;;;;;;;;6276520;22;20439;-77
2021/09/30 03:45:13;;;;;;;8.80;7.93;;;;;;;;;;6249390;22;20004;-77
2021/09/30 03:47:39;;;;;;;8.88;7.80;;;;;;;;;;6249174;22;20004;-76
2021/09/30 03:50:09;;;;;;;9.43;7.88;;;;;;;;;;6249430;22;20000;-75
2021/09/30 04:00:50;;;;;;;8.50;7.67;;;;;;;;;;6276134;22;19906;-76
2021/09/30 04:03:16;;;;;;;8.77;7.88;;;;;;;;;;6276362;22;20245;-75
2021/09/30 04:05:42;;;;;;;8.88;8.07;;;;;;;;;;6248919;22;20079;-78
2021/09/30 04:08:08;;;;;;;8.25;7.45;;;;;;;;;;6276395;22;20435;-76
2021/09/30 04:10:34;;;;;;;9.02;8.02;;;;;;;;;;6276329;22;20000;-77
2021/09/30 04:13:00;;;;;;;10.50;7.55;;;;;;;;;;6248892;22;20457;-76
2021/09/30 04:15:27;;;;;;;10.88;7.45;;;;;;;;;;6276382;22;20423;-75
2021/09/30 04:17:53;;;;;;;9.25;8.35;;;;;;;;;;6248708;22;20466;-75
2021/09/30 04:20:19;;;;;;;12.38;8.18;;;;;;;;;;6276314;22;20029;-74
2021/09/30 04:22:45;;;;;;;11.35;8.13;;;;;;;;;;6275825;22;20057;-75
2021/09/30 04:25:12;;;;;;;9.50;8.13;;;;;;;;;;6275769;22;19999;-77
2021/09/30 04:27:38;;;;;;;9.32;8.27;;;;;;;;;;6276101;22;20066;-76
2021/09/30 04:30:05;;;;;;;9.55;7.80;;;;;;;;;;6275987;22;20065;-78
2021/09/30 04:32:32;;;;;;;8.90;8.10;;;;;;;;;;6248985;22;20011;-78
2021/09/30 04:34:58;;;;;;;9.50;8.48;;;;;;;;;;6275687;22;20003;-76
2021/09/30 04:37:25;;;;;;;8.55;7.35;;;;;;;;;;6276066;22;20309;-78
2021/09/30 04:39:52;;;;;;;9.88;8.80;;;;;;;;;;6248490;22;20015;-76
2021/09/30 04:42:18;;;;;;;9.90;8.38;;;;;;;;;;6275909;22;20003;-77
2021/09/30 04:44:44;;;;;;;8.95;8.05;;;;;;;;;;6275757;22;19999;-74
2021/09/30 04:47:10;;;;;;;9.32;8.45;;;;;;;;;;6248698;22;20008;-79
2021/09/30 04:49:36;;;;;;;9.10;7.78;;;;;;;;;;6276071;22;20000;-77
2021/09/30 04:52:02;;;;;;;9.43;8.52;;;;;;;;;;6275161;22;20015;-75
2021/09/30 04:54:28;;;;;;;10.77;7.68;;;;;;;;;;6248698;22;20011;-75
2021/09/30 04:56:55;;;;;;;10.07;8.88;;;;;;;;;;6275310;22;20326;-76
2021/09/30 04:59:21;;;;;;;10.30;8.90;;;;;;;;;;6275859;22;20339;-76
2021/09/30 05:01:47;;;;;;;9.60;8.60;;;;;;;;;;6248511;22;20035;-76
2021/09/30 05:04:13;;;;;;;8.55;7.75;;;;;;;;;;6275404;22;19999;-75
2021/09/30 05:06:39;;;;;;;8.40;7.50;;;;;;;;;;6275877;22;20442;-73
2021/09/30 05:09:05;;;;;;;10.85;8.73;;;;;;;;;;6248340;22;20463;-76
2021/09/30 05:11:46;;;;;;;9.93;8.93;;;;;;;;;;6275355;22;20378;-80
2021/09/30 05:14:12;;;;;;;9.68;8.43;;;;;;;;;;6274790;22;20371;-74
2021/09/30 05:16:38;;;;;;;9.07;8.07;;;;;;;;;;6275412;22;20000;-75
2021/09/30 05:19:05;;;;;;;11.65;8.80;;;;;;;;;;6248220;22;20019;-77
2021/09/30 05:21:31;;;;;;;10.32;8.70;;;;;;;;;;6275579;22;20023;-77
2021/09/30 05:23:57;;;;;;;12.15;9.40;;;;;;;;;;6247755;22;20392;-75
2021/09/30 05:26:27;;;;;;;11.93;8.98;;;;;;;;;;6275138;22;20418;-76
2021/09/30 05:28:53;;;;;;;9.27;8.38;;;;;;;;;;6241335;22;20013;-79
2021/09/30 05:31:19;;;;;;;10.20;9.20;;;;;;;;;;6272800;22;20008;-77
2021/09/30 05:33:46;;;;;;;10.98;8.15;;;;;;;;;;6273911;22;20015;-79
2021/09/30 05:36:12;;;;;;;8.55;7.75;;;;;;;;;;6273283;22;20007;-76
2021/09/30 05:38:38;;;;;;;11.20;9.75;;;;;;;;;;6274837;22;20019;-81
2021/09/30 05:41:05;;;;;;;12.07;9.52;;;;;;;;;;6274049;22;20343;-77
2021/09/30 05:43:35;;;;;;;9.65;8.63;;;;;;;;;;6273991;22;20027;-77
2021/09/30 05:46:01;;;;;;;11.50;10.30;;;;;;;;;;6274271;22;20010;-77
2021/09/30 05:48:28;;;;;;;11.40;10.18;;;;;;;;;;6247345;22;20050;-75
2021/09/30 05:50:54;;;;;;;10.57;9.48;;;;;;;;;;6274321;22;20000;-79
2021/09/30 05:53:21;;;;;;;10.43;9.32;;;;;;;;;;6274176;22;20025;-77
2021/09/30 05:55:47;;;;;;;13.93;10.40;;;;;;;;;;6274590;22;20007;-78
2021/09/30 05:58:14;;;;;;;12.30;11.05;;;;;;;;;;6273885;22;20015;-78
2021/09/30 06:14:10;;;;;;;12.52;10.05;;;;;;;;;;6284676;22;20016;-77
2021/09/30 06:16:44;;;;;;;10.45;9.30;;;;;;;;;;6274356;22;20011;-76
2021/09/30 06:19:10;;;;;;;9.70;8.70;;;;;;;;;;6273784;22;20047;-76
2021/09/30 06:21:36;;;;;;;11.50;10.27;;;;;;;;;;6274183;22;20007;-74
2021/09/30 06:24:03;;;;;;;10.68;9.57;;;;;;;;;;6247444;22;20007;-76
2021/09/30 06:26:29;;;;;;;11.77;10.57;;;;;;;;;;6247059;22;20465;-79
2021/09/30 06:28:55;;;;;;;12.43;11.13;;;;;;;;;;6274244;22;20015;-79
2021/09/30 06:31:21;;;;;;;14.65;12.00;;;;;;;;;;6274058;22;20027;-76
2021/09/30 06:33:48;;;;;;;12.57;11.02;;;;;;;;;;6274419;22;20079;-78
2021/09/30 06:36:14;;;;;;;16.05;11.52;;;;;;;;;;6274201;22;20000;-77
2021/09/30 06:38:40;;;;;;;16.40;12.65;;;;;;;;;;6274200;22;20034;-78
2021/09/30 06:41:06;;;;;;;13.43;11.77;;;;;;;;;;6274481;22;19999;-74
2021/09/30 06:43:32;;;;;;;17.90;16.05;;;;;;;;;;6274384;22;20070;-77
2021/09/30 06:45:58;;;;;;;21.63;19.05;;;;;;;;;;6273900;22;20015;-77
2021/09/30 06:48:26;;;;;;;23.10;20.73;;;;;;;;;;6275917;22;20035;-80
2021/09/30 06:50:52;;;;;;;16.80;14.98;;;;;;;;;;6276480;22;19996;-77
2021/09/30 06:53:21;;;;;;;16.48;13.50;;;;;;;;;;6275785;22;20365;-77
2021/09/30 06:55:48;;;;;;;18.02;15.02;;;;;;;;;;6275761;22;20008;-77
2021/09/30 06:58:14;;;;;;;12.90;11.40;;;;;;;;;;6275845;22;20138;-78
2021/09/30 07:00:41;;;;;;;13.45;12.10;;;;;;;;;;6275560;22;20443;-79
2021/09/30 07:03:08;;;;;;;13.75;12.35;;;;;;;;;;6249009;22;20335;-81
2021/09/30 07:05:35;;;;;;;16.45;14.88;;;;;;;;;;6275822;22;20010;-81
2021/09/30 07:08:02;;;;;;;36.70;32.75;;;;;;;;;;6276072;22;19999;-77
2021/09/30 07:10:31;;;;;;;83.55;66.90;;;;;;;;;;6249142;22;20011;-80
2021/09/30 07:12:57;;;;;;;46.75;41.53;;;;;;;;;;6275322;22;20052;-80
2021/09/30 07:15:23;;;;;;;27.27;22.85;;;;;;;;;;6275576;22;20004;-82
2021/09/30 07:17:49;;;;;;;15.70;14.02;;;;;;;;;;6274421;22;20008;-77
2021/09/30 07:20:16;;;;;;;30.95;26.95;;;;;;;;;;6275615;22;20057;-77
2021/09/30 07:22:42;;;;;;;19.33;17.20;;;;;;;;;;6274790;22;20042;-80
2021/09/30 07:25:08;;;;;;;13.15;11.80;;;;;;;;;;6275351;22;20011;-78
2021/09/30 07:27:37;;;;;;;20.25;18.10;;;;;;;;;;6275516;22;20393;-78
2021/09/30 07:30:04;;;;;;;13.30;12.00;;;;;;;;;;6275395;22;20045;-79
2021/09/30 07:32:31;;;;;;;13.80;11.10;;;;;;;;;;6275301;22;20010;-79
2021/09/30 07:34:57;;;;;;;13.57;11.95;;;;;;;;;;6276017;22;20312;-79
2021/09/30 07:37:24;;;;;;;13.45;11.65;;;;;;;;;;6247066;22;20019;-80
2021/09/30 07:39:50;;;;;;;14.13;11.80;;;;;;;;;;6275518;22;20054;-81
2021/09/30 07:42:16;;;;;;;16.83;10.52;;;;;;;;;;6275954;22;20061;-78
2021/09/30 07:44:42;;;;;;;39.78;35.60;;;;;;;;;;6273760;22;20034;-82
2021/09/30 07:47:08;;;;;;;17.25;15.48;;;;;;;;;;6275679;22;20025;-80
2021/09/30 07:49:35;;;;;;;17.25;14.68;;;;;;;;;;6275775;22;20083;-78
2021/09/30 07:52:01;;;;;;;14.52;13.13;;;;;;;;;;6275211;22;20560;-80
2021/09/30 07:54:27;;;;;;;15.75;14.18;;;;;;;;;;6275380;22;20004;-77
2021/09/30 07:56:53;;;;;;;14.00;11.05;;;;;;;;;;6275158;22;20023;-79
2021/09/30 07:59:19;;;;;;;17.25;15.30;;;;;;;;;;6275454;22;20021;-78
2021/09/30 08:01:46;;;;;;;36.42;32.45;;;;;;;;;;6275003;22;20000;-78
2021/09/30 08:04:14;;;;;;;14.68;13.20;;;;;;;;;;6275145;22;20008;-80
2021/09/30 08:06:42;;;;;;;13.02;11.00;;;;;;;;;;6275116;22;20004;-82
2021/09/30 08:09:08;;;;;;;11.77;10.57;;;;;;;;;;6275742;22;20011;-79
2021/09/30 08:11:34;;;;;;;10.25;9.10;;;;;;;;;;6275610;22;20412;-78
2021/09/30 08:14:00;;;;;;;10.35;9.38;;;;;;;;;;6275309;22;20014;-73
2021/09/30 08:16:27;;;;;;;15.00;13.50;;;;;;;;;;6275765;22;20436;-79
2021/09/30 08:18:55;;;;;;;11.77;10.43;;;;;;;;;;6274994;22;20019;-77
2021/09/30 08:21:22;;;;;;;15.57;11.52;;;;;;;;;;6275693;22;20054;-75
2021/09/30 08:23:49;;;;;;;13.65;11.20;;;;;;;;;;6276087;22;20086;-77
2021/09/30 08:26:18;;;;;;;12.02;10.82;;;;;;;;;;6275613;22;20012;-77
2021/09/30 08:28:48;;;;;;;21.17;17.08;;;;;;;;;;6247234;22;20492;-82
2021/09/30 08:31:15;;;;;;;21.58;17.35;;;;;;;;;;6275555;22;20357;-78
2021/09/30 08:33:42;;;;;;;23.10;20.33;;;;;;;;;;6274845;22;20084;-76
2021/09/30 08:36:12;;;;;;;19.25;17.10;;;;;;;;;;6273864;22;20423;-79
2021/09/30 08:38:38;;;;;;;22.08;19.55;;;;;;;;;;6274460;22;20497;-77
2021/09/30 08:41:04;;;;;;;16.95;14.85;;;;;;;;;;6274772;22;20078;-78
2021/09/30 08:43:31;;;;;;;16.92;13.88;;;;;;;;;;6275070;22;20109;-80
2021/09/30 08:45:57;;;;;;;19.60;13.73;;;;;;;;;;6274706;22;20003;-79
2021/09/30 08:48:25;;;;;;;22.95;19.48;;;;;;;;;;6275852;22;20014;-75
2021/09/30 08:50:51;;;;;;;17.80;15.88;;;;;;;;;;6274831;22;20467;-79
2021/09/30 08:53:17;;;;;;;12.43;10.30;;;;;;;;;;6274929;22;20016;-79
2021/09/30 08:55:44;;;;;;;13.25;11.85;;;;;;;;;;6275401;22;20031;-79
2021/09/30 08:58:10;;;;;;;11.27;10.20;;;;;;;;;;6274876;22;20015;-77
2021/09/30 09:00:42;;;;;;;11.20;9.98;;;;;;;;;;6275138;22;20087;-79
2021/09/30 09:03:08;;;;;;;9.85;8.93;;;;;;;;;;6275000;22;20015;-80
2021/09/30 09:05:37;;;;;;;9.88;8.88;;;;;;;;;;6274812;22;20000;-78
2021/09/30 09:08:04;;;;;;;9.38;8.45;;;;;;;;;;6274836;22;20450;-81
2021/09/30 09:10:32;;;;;;;10.68;8.75;;;;;;;;;;6274361;22;20443;-82
2021/09/30 09:13:06;;;;;;;13.23;9.48;;;;;;;;;;6274637;22;20011;-77
2021/09/30 09:15:39;;;;;;;11.55;9.88;;;;;;;;;;6274931;22;20332;-78
2021/09/30 09:18:23;;;;;;;10.18;9.18;;;;;;;;;;6274246;22;20015;-77
2021/09/30 09:21:28;;;;;;;9.40;8.40;;;;;;;;;;6274457;22;20087;-79
2021/09/30 09:23:56;;;;;;;9.33;8.43;;;;;;;;;;6121589;23;20029;-80
2021/09/30 09:26:42;;;;;;;11.32;10.23;;;;;;;;;;6122063;23;20009;-76
2021/09/30 09:29:13;;;;;;;11.82;9.43;;;;;;;;;;6121426;23;20014;-76
2021/09/30 09:31:41;;;;;;;10.88;9.75;;;;;;;;;;6121860;23;20180;-79
2021/09/30 09:34:17;;;;;;;9.52;8.60;;;;;;;;;;6123771;22;20085;-76
2021/09/30 09:36:44;;;;;;;10.40;9.40;;;;;;;;;;6274843;22;20004;-77
2021/09/30 09:39:10;;;;;;;9.88;8.90;;;;;;;;;;6274566;22;20054;-79
2021/09/30 09:41:36;;;;;;;56.28;50.35;;;;;;;;;;6274632;22;20011;-75
2021/09/30 09:44:04;;;;;;;13.90;12.52;;;;;;;;;;6274021;22;20436;-77
2021/09/30 09:46:32;;;;;;;12.23;11.02;;;;;;;;;;6274291;22;20035;-75
2021/09/30 09:49:00;;;;;;;12.45;9.60;;;;;;;;;;6273652;22;20366;-80
2021/09/30 09:51:33;;;;;;;9.32;8.40;;;;;;;;;;6274328;22;20000;-81
2021/09/30 09:54:00;;;;;;;11.30;8.35;;;;;;;;;;6274637;22;19999;-76
2021/09/30 09:56:26;;;;;;;8.43;7.63;;;;;;;;;;6274347;22;20000;-76
2021/09/30 09:58:57;;;;;;;9.82;7.72;;;;;;;;;;6273530;22;20322;-78
2021/09/30 10:01:27;;;;;;;15.13;13.02;;;;;;;;;;6274333;22;20003;-79
2021/09/30 10:03:55;;;;;;;17.05;13.77;;;;;;;;;;6274255;22;20003;-76
2021/09/30 10:06:22;;;;;;;9.70;8.70;;;;;;;;;;6274046;22;20043;-78
2021/09/30 10:08:48;;;;;;;9.25;8.35;;;;;;;;;;6273474;22;19996;-77
2021/09/30 10:11:14;;;;;;;8.77;7.88;;;;;;;;;;6273913;22;20042;-77
2021/09/30 10:13:40;;;;;;;8.75;7.78;;;;;;;;;;6275180;22;20007;-80
2021/09/30 10:16:06;;;;;;;8.80;7.90;;;;;;;;;;6274485;22;20472;-79
2021/09/30 10:18:33;;;;;;;9.65;8.68;;;;;;;;;;6273745;22;20008;-77
2021/09/30 10:20:59;;;;;;;10.15;9.23;;;;;;;;;;6274096;22;19999;-75
2021/09/30 10:23:30;;;;;;;9.13;8.30;;;;;;;;;;6275392;22;20035;-78
2021/09/30 10:26:14;;;;;;;9.38;8.23;;;;;;;;;;6276212;22;20004;-81
2021/09/30 10:28:59;;;;;;;7.85;7.05;;;;;;;;;;6274482;22;20080;-79
2021/09/30 10:31:30;;;;;;;10.77;9.60;;;;;;;;;;6275974;22;20011;-78
2021/09/30 10:33:57;;;;;;;10.18;7.55;;;;;;;;;;6276307;22;20301;-77
2021/09/30 10:36:32;;;;;;;8.98;7.63;;;;;;;;;;6275527;22;20004;-78
2021/09/30 10:38:58;;;;;;;;;;;;;;;;;;6277213;22;20018;-78
2021/09/30 10:41:35;;;;;;;8.38;7.07;;;;;;;;;;6275992;22;19938;-75
2021/09/30 10:44:12;;;;;;;8.68;7.65;;;;;;;;;;6276813;22;20063;-78
2021/09/30 10:46:40;;;;;;;8.45;6.93;;;;;;;;;;6276165;22;20012;-74
2021/09/30 10:49:26;;;;;;;7.80;7.00;;;;;;;;;;6276369;22;20003;-77
2021/09/30 10:52:10;;;;;;;10.57;9.00;;;;;;;;;;6276190;22;20027;-77
2021/09/30 10:54:36;;;;;;;;;;;;;;;;;;6275958;22;20004;-79
2021/09/30 10:57:12;;;;;;;8.52;7.63;;;;;;;;;;6276148;22;20556;-75
2021/09/30 10:59:42;;;;;;;9.20;7.95;;;;;;;;;;6246452;22;20016;-78
2021/09/30 11:02:09;;;;;;;7.95;7.10;;;;;;;;;;6275167;22;20008;-77
2021/09/30 11:04:55;;;;;;;7.22;6.20;;;;;;;;;;6274884;22;20442;-76
2021/09/30 11:07:21;;;;;;;14.80;8.82;;;;;;;;;;6275961;22;20000;-78
2021/09/30 11:10:07;;;;;;;13.52;9.65;;;;;;;;;;6274931;22;20011;-78
2021/09/30 11:12:36;;;;;;;9.80;7.22;;;;;;;;;;6275623;22;20003;-76
2021/09/30 11:15:02;;;;;;;7.80;6.93;;;;;;;;;;6276421;22;20038;-75
2021/09/30 11:17:35;;;;;;;9.60;8.00;;;;;;;;;;6275108;22;20022;-78
2021/09/30 11:20:28;;;;;;;7.25;6.53;;;;;;;;;;6275030;22;20380;-77
2021/09/30 11:23:00;;;;;;;13.95;10.25;;;;;;;;;;6268859;22;20008;-81
2021/09/30 11:25:44;;;;;;;42.05;33.40;;;;;;;;;;6275236;22;20016;-77
2021/09/30 11:28:14;;;;;;;9.32;7.38;;;;;;;;;;6275426;22;20028;-76
2021/09/30 11:30:40;;;;;;;7.85;6.28;;;;;;;;;;6275280;22;20015;-75
2021/09/30 11:33:08;;;;;;;6.68;5.90;;;;;;;;;;6275897;22;20000;-76
2021/09/30 11:35:35;;;;;;;7.97;7.18;;;;;;;;;;6275355;22;19999;-78
2021/09/30 11:38:03;;;;;;;16.42;13.25;;;;;;;;;;6275967;22;20007;-76
2021/09/30 11:40:29;;;;;;;9.65;8.63;;;;;;;;;;6275048;22;20008;-76
2021/09/30 11:42:55;;;;;;;10.00;7.68;;;;;;;;;;6275410;22;20024;-76
2021/09/30 11:45:29;;;;;;;8.63;6.95;;;;;;;;;;6275502;22;20045;-77
2021/09/30 11:48:03;;;;;;;9.60;6.88;;;;;;;;;;6275938;22;20004;-77
2021/09/30 11:50:29;;;;;;;9.10;6.45;;;;;;;;;;6275336;22;20053;-81
2021/09/30 11:53:04;;;;;;;9.85;6.07;;;;;;;;;;6248058;22;20018;-75
2021/09/30 11:55:31;;;;;;;7.22;6.28;;;;;;;;;;6275386;22;20356;-82
2021/09/30 11:58:02;;;;;;;7.40;6.72;;;;;;;;;;6248001;22;20008;-78
2021/09/30 12:00:28;;;;;;;19.75;16.75;;;;;;;;;;6248718;22;20004;-80
2021/09/30 12:02:59;;;;;;;28.30;21.27;;;;;;;;;;6275733;22;20000;-78
2021/09/30 12:05:29;;;;;;;23.00;16.65;;;;;;;;;;6275839;22;20091;-80
2021/09/30 12:07:55;;;;;;;14.80;10.85;;;;;;;;;;6275156;22;20004;-78
2021/09/30 12:10:21;;;;;;;8.25;7.35;;;;;;;;;;6275617;22;20010;-76
2021/09/30 12:12:48;;;;;;;19.98;10.48;;;;;;;;;;6275505;22;19999;-77
2021/09/30 12:15:14;;;;;;;9.15;6.72;;;;;;;;;;6247904;22;20083;-79
2021/09/30 12:17:42;;;;;;;8.18;7.38;;;;;;;;;;6247259;22;20018;-74
2021/09/30 12:20:09;;;;;;;8.98;6.80;;;;;;;;;;6273165;22;20057;-76
2021/09/30 12:22:38;;;;;;;7.50;6.30;;;;;;;;;;6275363;22;20371;-75
2021/09/30 12:25:10;;;;;;;6.75;6.05;;;;;;;;;;6274866;22;20003;-78
2021/09/30 12:27:37;;;;;;;8.23;6.72;;;;;;;;;;6274285;22;20004;-78
2021/09/30 12:30:05;;;;;;;7.57;6.18;;;;;;;;;;6275801;22;19999;-76
2021/09/30 12:32:34;;;;;;;7.40;5.50;;;;;;;;;;6274121;22;20007;-76
2021/09/30 12:35:01;;;;;;;7.75;6.82;;;;;;;;;;6275578;22;20304;-78
2021/09/30 12:37:27;;;;;;;7.72;6.72;;;;;;;;;;6248237;22;20443;-77
2021/09/30 12:40:15;;;;;;;6.63;5.50;;;;;;;;;;6275812;22;20004;-75
2021/09/30 12:42:57;;;;;;;7.35;5.50;;;;;;;;;;6275053;22;20000;-77
2021/09/30 12:45:23;;;;;;;30.90;25.65;;;;;;;;;;6275298;22;20008;-76
2021/09/30 12:47:49;;;;;;;14.77;13.02;;;;;;;;;;6275764;22;20007;-77
2021/09/30 12:50:18;;;;;;;11.27;10.10;;;;;;;;;;6247152;22;20454;-76
2021/09/30 12:52:45;;;;;;;20.17;17.17;;;;;;;;;;6275428;22;20024;-76
2021/09/30 12:55:30;;;;;;;15.02;11.50;;;;;;;;;;6275559;22;20015;-76
2021/09/30 12:57:56;;;;;;;11.73;10.10;;;;;;;;;;6274472;22;20027;-76
2021/09/30 13:00:23;;;;;;;9.50;8.43;;;;;;;;;;6273032;22;20382;-76
2021/09/30 13:02:55;;;;;;;8.73;7.32;;;;;;;;;;6273927;22;20336;-74
2021/09/30 13:05:21;;;;;;;10.40;8.23;;;;;;;;;;6274279;22;20004;-78
2021/09/30 13:07:58;;;;;;;16.77;14.88;;;;;;;;;;6248892;22;20358;-79
2021/09/30 13:10:32;;;;;;;12.70;11.40;;;;;;;;;;6275689;22;20011;-75
2021/09/30 13:13:03;;;;;;;9.27;8.35;;;;;;;;;;6248819;22;20332;-75
2021/09/30 13:15:46;;;;;;;12.27;8.32;;;;;;;;;;6275249;22;20011;-80
2021/09/30 13:18:14;;;;;;;11.57;9.40;;;;;;;;;;6275439;22;20012;-78
2021/09/30 13:20:41;;;;;;;26.85;24.15;;;;;;;;;;6248242;22;20011;-75
2021/09/30 13:23:09;;;;;;;10.88;8.85;;;;;;;;;;6275705;22;20011;-74
2021/09/30 13:25:35;;;;;;;7.63;5.57;;;;;;;;;;6275556;22;20004;-78
2021/09/30 13:28:02;;;;;;;8.23;5.78;;;;;;;;;;6275022;22;20004;-79
2021/09/30 13:30:29;;;;;;;6.55;5.45;;;;;;;;;;6275498;22;20181;-75
2021/09/30 13:32:57;;;;;;;7.47;5.57;;;;;;;;;;6276088;22;19999;-77
2021/09/30 13:35:24;;;;;;;5.95;5.15;;;;;;;;;;6247710;22;20003;-79
2021/09/30 13:37:51;;;;;;;7.00;5.70;;;;;;;;;;6275735;22;20086;-79
2021/09/30 13:40:18;;;;;;;7.78;5.53;;;;;;;;;;6275539;22;20006;-75
2021/09/30 13:42:44;;;;;;;6.05;5.25;;;;;;;;;;6275522;22;20458;-78
2021/09/30 13:45:11;;;;;;;5.70;4.97;;;;;;;;;;6275951;22;20000;-74
2021/09/30 13:47:38;;;;;;;6.95;5.32;;;;;;;;;;6248295;22;20065;-77
2021/09/30 13:50:05;;;;;;;7.18;5.03;;;;;;;;;;6275578;22;20000;-77
2021/09/30 13:52:31;;;;;;;14.13;10.15;;;;;;;;;;6275068;22;20050;-76
2021/09/30 13:54:57;;;;;;;17.55;13.68;;;;;;;;;;6275895;22;20067;-76
2021/09/30 13:57:23;;;;;;;20.00;18.02;;;;;;;;;;6277012;22;20031;-78
2021/09/30 13:59:49;;;;;;;8.85;7.18;;;;;;;;;;6249819;22;20008;-79
2021/09/30 14:02:15;;;;;;;5.60;4.82;;;;;;;;;;6277866;22;20027;-77
2021/09/30 14:04:42;;;;;;;6.70;5.20;;;;;;;;;;6277285;22;20312;-75
2021/09/30 14:07:08;;;;;;;8.45;5.40;;;;;;;;;;6277938;22;20004;-79
2021/09/30 14:09:36;;;;;;;6.82;5.40;;;;;;;;;;6277476;22;20070;-75
2021/09/30 14:12:03;;;;;;;7.32;5.60;;;;;;;;;;6277591;22;20004;-79
2021/09/30 14:14:29;;;;;;;5.88;4.82;;;;;;;;;;6277800;22;20431;-78
2021/09/30 14:16:55;;;;;;;6.82;5.88;;;;;;;;;;6277918;22;20079;-75
2021/09/30 14:19:25;;;;;;;10.65;6.75;;;;;;;;;;6276815;22;20008;-77
2021/09/30 14:21:53;;;;;;;12.48;10.38;;;;;;;;;;6277424;22;19999;-77
2021/09/30 14:24:19;;;;;;;6.90;6.18;;;;;;;;;;6277611;22;20097;-80
2021/09/30 14:26:45;;;;;;;9.13;6.65;;;;;;;;;;6277226;22;20012;-77
2021/09/30 14:29:11;;;;;;;11.18;7.97;;;;;;;;;;6277647;22;20003;-76
2021/09/30 14:31:38;;;;;;;9.07;6.45;;;;;;;;;;6277320;22;20003;-80
2021/09/30 14:34:04;;;;;;;7.03;5.28;;;;;;;;;;6277088;22;20080;-78
2021/09/30 14:36:30;;;;;;;12.15;9.80;;;;;;;;;;6249749;22;20031;-75
2021/09/30 14:38:56;;;;;;;8.57;6.45;;;;;;;;;;6277797;22;20003;-78
2021/09/30 14:41:23;;;;;;;8.02;5.40;;;;;;;;;;6276969;22;20010;-78
2021/09/30 14:43:50;;;;;;;6.93;4.82;;;;;;;;;;6277338;22;20386;-76
2021/09/30 14:46:17;;;;;;;5.55;4.47;;;;;;;;;;6250341;22;20014;-77
2021/09/30 14:48:44;;;;;;;6.75;5.55;;;;;;;;;;6276439;22;20057;-77
2021/09/30 14:51:11;;;;;;;6.93;5.32;;;;;;;;;;6250062;22;20003;-79
2021/09/30 14:53:38;;;;;;;8.70;5.10;;;;;;;;;;6277587;22;20015;-75
2021/09/30 14:56:05;;;;;;;5.93;5.32;;;;;;;;;;6276964;22;20007;-78
2021/09/30 14:58:31;;;;;;;6.00;4.78;;;;;;;;;;6277187;22;20012;-75
2021/09/30 15:00:57;;;;;;;6.90;6.22;;;;;;;;;;6277131;22;20000;-76
2021/09/30 15:03:23;;;;;;;23.25;17.83;;;;;;;;;;6277087;22;20075;-76
2021/09/30 15:05:50;;;;;;;33.20;29.75;;;;;;;;;;6276914;22;20042;-78
2021/09/30 15:08:16;;;;;;;33.70;29.80;;;;;;;;;;6276877;22;20420;-76
2021/09/30 15:10:45;;;;;;;16.88;13.85;;;;;;;;;;6249386;22;20012;-76
2021/09/30 15:13:11;;;;;;;30.27;19.80;;;;;;;;;;6277609;22;20008;-80
2021/09/30 15:15:37;;;;;;;7.95;6.68;;;;;;;;;;6276774;22;20004;-77
2021/09/30 15:18:07;;;;;;;7.07;6.32;;;;;;;;;;6276092;22;20015;-80
2021/09/30 15:23:11;;;;;;;7.55;5.63;;;;;;;;;;6287643;22;20073;-77
2021/09/30 15:25:39;;;;;;;6.28;5.00;;;;;;;;;;6277076;22;20000;-78
2021/09/30 15:28:06;;;;;;;9.63;8.63;;;;;;;;;;6276997;22;20003;-76
2021/09/30 15:30:36;;;;;;;23.33;7.40;;;;;;;;;;6277248;22;20010;-77
2021/09/30 15:33:02;;;;;;;10.38;6.32;;;;;;;;;;6276638;22;20065;-80
2021/09/30 15:35:29;;;;;;;8.70;7.18;;;;;;;;;;6276807;22;20008;-77
2021/09/30 15:37:55;;;;;;;9.65;5.95;;;;;;;;;;6276408;22;20090;-78
2021/09/30 15:40:21;;;;;;;9.98;8.75;;;;;;;;;;6276647;22;20003;-75
2021/09/30 15:42:47;;;;;;;8.68;6.72;;;;;;;;;;6276605;22;19999;-77
2021/09/30 15:45:17;;;;;;;8.27;6.43;;;;;;;;;;6249785;22;20011;-78
2021/09/30 15:47:43;;;;;;;9.77;7.40;;;;;;;;;;6276558;22;20007;-77
2021/09/30 15:50:09;;;;;;;9.55;6.57;;;;;;;;;;6276627;22;20004;-76
2021/09/30 15:52:36;;;;;;;8.27;7.10;;;;;;;;;;6249035;22;20087;-77
2021/09/30 15:55:02;;;;;;;7.95;7.15;;;;;;;;;;6276243;22;20004;-77
2021/09/30 15:57:31;;;;;;;8.15;6.47;;;;;;;;;;6249406;22;20043;-78
2021/09/30 15:59:57;;;;;;;8.52;6.97;;;;;;;;;;6276147;22;20003;-75
2021/09/30 16:02:23;;;;;;;7.72;6.32;;;;;;;;;;6276101;22;20000;-77
2021/09/30 16:04:50;;;;;;;7.50;6.45;;;;;;;;;;6249223;22;20007;-75
2021/09/30 16:07:16;;;;;;;8.75;7.05;;;;;;;;;;6276444;22;20003;-79
2021/09/30 16:09:42;;;;;;;10.88;7.32;;;;;;;;;;6276260;22;20007;-75
2021/09/30 16:12:08;;;;;;;9.30;6.53;;;;;;;;;;6276140;22;20065;-78
2021/09/30 16:14:35;;;;;;;9.65;7.65;;;;;;;;;;6276639;22;20466;-78
2021/09/30 16:17:01;;;;;;;13.30;7.97;;;;;;;;;;6275719;22;19999;-77
2021/09/30 16:19:27;;;;;;;10.80;8.02;;;;;;;;;;6276374;22;20050;-78
2021/09/30 16:21:53;;;;;;;12.18;8.70;;;;;;;;;;6275830;22;20060;-77
2021/09/30 16:24:20;;;;;;;12.23;8.30;;;;;;;;;;6275835;22;20004;-78
2021/09/30 16:26:46;;;;;;;11.07;8.65;;;;;;;;;;6276230;22;20000;-75
2021/09/30 16:29:12;;;;;;;25.77;22.90;;;;;;;;;;6276196;22;20003;-77
2021/09/30 16:31:40;;;;;;;22.48;17.08;;;;;;;;;;6275929;22;20390;-77
2021/09/30 16:34:06;;;;;;;20.67;14.77;;;;;;;;;;6275976;22;20023;-78
2021/09/30 16:36:32;;;;;;;22.90;17.40;;;;;;;;;;6276162;22;20031;-80
2021/09/30 16:38:59;;;;;;;32.00;22.92;;;;;;;;;;6275693;22;20016;-78
2021/09/30 16:41:26;;;;;;;30.40;21.08;;;;;;;;;;6276179;22;20431;-80
2021/09/30 16:43:52;;;;;;;19.45;16.40;;;;;;;;;;6276601;22;20004;-78
2021/09/30 16:46:20;;;;;;;15.32;9.82;;;;;;;;;;6275863;22;20102;-74
2021/09/30 16:48:47;;;;;;;18.00;11.70;;;;;;;;;;6276105;22;20332;-78
2021/09/30 16:51:13;;;;;;;29.98;21.85;;;;;;;;;;6275611;22;20031;-75
2021/09/30 16:53:39;;;;;;;34.92;28.45;;;;;;;;;;6275824;22;20082;-77
2021/09/30 16:56:05;;;;;;;38.80;30.35;;;;;;;;;;6275853;22;20000;-77
2021/09/30 16:58:32;;;;;;;32.78;26.35;;;;;;;;;;6275793;22;20072;-77
2021/09/30 17:00:58;;;;;;;34.25;25.58;;;;;;;;;;6248685;22;20273;-76
2021/09/30 17:03:24;;;;;;;29.48;21.10;;;;;;;;;;6275267;22;20082;-76
2021/09/30 17:05:52;;;;;;;26.88;18.10;;;;;;;;;;6275858;22;20004;-76
2021/09/30 17:08:18;;;;;;;25.73;17.27;;;;;;;;;;6275538;22;20012;-76
2021/09/30 17:10:44;;;;;;;28.30;20.80;;;;;;;;;;6275926;22;20041;-76
2021/09/30 17:13:11;;;;;;;42.03;30.55;;;;;;;;;;6276220;22;20014;-76
2021/09/30 17:15:37;;;;;;;43.67;32.50;;;;;;;;;;6275469;22;20014;-76
2021/09/30 17:18:04;;;;;;;49.65;34.50;;;;;;;;;;6247529;22;20016;-77
2021/09/30 17:20:31;;;;;;;47.97;33.70;;;;;;;;;;6275456;22;20006;-74
2021/09/30 17:22:58;;;;;;;55.03;37.78;;;;;;;;;;6275485;22;20004;-77
2021/09/30 17:25:24;;;;;;;33.20;25.45;;;;;;;;;;6247885;22;20030;-74
2021/09/30 17:27:51;;;;;;;24.92;18.48;;;;;;;;;;6275451;22;20383;-75
2021/09/30 17:30:20;;;;;;;23.65;18.98;;;;;;;;;;6275006;22;20000;-78
2021/09/30 17:32:47;;;;;;;14.75;11.15;;;;;;;;;;6275993;22;20300;-79
2021/09/30 17:35:13;;;;;;;28.40;23.40;;;;;;;;;;6275282;22;20004;-75
2021/09/30 17:37:39;;;;;;;14.90;10.05;;;;;;;;;;6275559;22;20012;-80
2021/09/30 17:40:06;;;;;;;13.52;9.70;;;;;;;;;;6275210;22;20003;-76
2021/09/30 17:42:33;;;;;;;11.85;8.90;;;;;;;;;;6275189;22;20046;-74
2021/09/30 17:44:59;;;;;;;11.43;9.75;;;;;;;;;;6248379;22;20008;-74